AKDT,Max TemperatureF,Mean TemperatureF,Min TemperatureF,Max Dew PointF,MeanDew PointF,Min DewpointF,Max Humidity, Mean Humidity, Min Humidity, Max Sea Level PressureIn, Mean Sea Level PressureIn, Min Sea Level PressureIn, Max VisibilityMiles, Mean VisibilityMiles, Min VisibilityMiles, Max Wind SpeedMPH, Mean Wind SpeedMPH, Max Gust SpeedMPH,PrecipitationIn, CloudCover, Events, WindDirDegrees
2012-10-1,34,26,17,30,25,16,100,88,71,30.21,30.19,30.13,10,8,2,7,3,,0.05,4,Rain-Snow,101
2012-10-2,36,33,31,34,32,30,100,96,92,30.20,30.15,30.10,10,4,1,4,2,,0.29,8,Rain-Snow,224
2012-10-3,43,38,33,34,33,31,95,85,66,30.14,30.09,29.97,10,10,10,6,3,,0.04,6,Rain-Snow,237
2012-10-4,40,38,36,39,35,28,100,89,64,29.95,29.90,29.86,10,8,0,9,4,17,0.19,7,Fog-Rain,123
2012-10-5,45,38,33,37,35,32,100,87,66,30.07,30.02,29.97,10,8,1,10,3,17,0.04,5,Fog-Rain,202
2012-10-6,40,38,34,36,34,32,94,86,70,30.22,30.10,29.96,10,9,2,9,3,15,0.17,6,Rain-Snow,233
2012-10-7,38,34,32,34,33,31,100,89,81,30.26,30.24,30.19,10,10,6,6,2,,0.11,6,Rain,251
2012-10-8,36,33,30,31,28,18,94,81,55,30.43,30.30,30.17,10,10,10,10,3,16,0.00,4,Rain-Snow,309
2012-10-9,33,30,28,15,12,11,49,47,44,30.56,30.52,30.45,10,10,10,18,12,28,0.00,0,,24
2012-10-10,30,27,24,14,11,9,55,50,43,30.52,30.48,30.35,10,10,10,18,10,30,0.00,1,,58
2012-10-11,27,20,14,11,9,8,79,60,43,30.36,30.11,29.86,10,10,2,8,4,,0.00,1,,188
2012-10-12,29,22,14,10,9,6,82,57,40,29.85,29.73,29.66,10,10,10,12,5,22,0.00,4,,88
2012-10-13,27,24,20,10,6,5,65,47,40,29.68,29.63,29.56,10,10,10,13,9,26,0.00,0,,48
2012-10-14,22,16,10,11,8,6,79,65,52,29.55,29.46,29.40,10,10,10,12,8,22,0.00,2,,51
2012-10-15,19,14,8,14,10,3,86,81,72,29.43,29.41,29.40,10,6,2,12,5,20,0.00,6,Snow,13
2012-10-16,25,20,15,20,17,13,93,89,80,29.73,29.55,29.41,10,5,1,10,4,17,0.02,8,Snow,52
2012-10-17,27,22,17,21,19,14,96,85,73,29.96,29.87,29.73,10,9,3,10,4,16,0.02,7,Snow,355
2012-10-18,16,14,13,14,12,10,94,87,80,30.05,30.00,29.96,10,10,10,5,3,,0.00,6,,355
2012-10-19,24,16,9,18,13,6,87,80,71,30.39,30.35,30.30,10,10,10,7,3,,0.00,0,,29
2012-10-20,14,12,10,12,11,8,93,92,89,30.66,30.62,30.55,10,10,10,8,4,,0.00,8,Snow,120
2012-10-21,14,8,3,12,7,0,92,90,78,30.66,30.61,30.49,10,10,6,12,5,,0.00,4,Snow,173
2012-10-22,12,6,0,9,1,-4,92,86,78,30.63,30.51,30.34,10,10,10,6,3,,0.00,0,,222
2012-10-23,10,6,1,7,1,-2,92,84,78,30.80,30.70,30.48,10,10,10,6,3,,0.00,0,,168
2012-10-24,23,12,2,14,7,-1,92,77,64,30.87,30.79,30.67,10,10,10,14,4,25,0.00,0,Snow,128
2012-10-25,18,12,7,16,12,6,98,90,72,30.77,30.66,30.56,10,8,3,9,4,,0.00,5,Snow,154
2012-10-26,20,16,10,18,14,8,100,92,86,30.56,30.50,30.39,10,10,4,9,3,,0.01,5,Snow,90
2012-10-27,15,10,5,13,7,3,95,90,83,30.44,30.34,30.12,10,8,0,5,2,,0.00,4,Fog-Snow,292
2012-10-28,12,6,-1,10,2,-4,92,89,85,30.30,30.26,30.14,10,9,1,2,1,,0.00,4,Fog-Snow,305
2012-10-29,19,12,8,16,11,6,93,90,70,30.14,30.06,29.90,10,6,1,8,2,,0.00,8,Snow,131
2012-10-30,19,8,1,6,2,-2,93,79,59,30.29,30.23,30.09,10,10,10,9,4,21,0.00,1,Snow,347
2012-10-31,23,12,1,4,2,-1,88,45,39,30.27,30.23,30.21,10,10,10,26,15,36,0.00,1,Snow,34